sensor_id;sensor_type;location;lat;lon;timestamp;P1;durP1;ratioP1;P2;durP2;ratioP2
10120;SDS011;5100;45.176;5.714;2023-02-18T00:01:28;9.53;;;8.53;;
10120;SDS011;5100;45.176;5.714;2023-02-18T00:03:56;9.87;;;8.40;;
10120;SDS011;5100;45.176;5.714;2023-02-18T00:06:24;10.00;;;7.87;;
10120;SDS011;5100;45.176;5.714;2023-02-18T00:08:52;9.93;;;8.27;;
10120;SDS011;5100;45.176;5.714;2023-02-18T00:11:20;11.83;;;8.13;;
10120;SDS011;5100;45.176;5.714;2023-02-18T00:13:53;9.73;;;7.93;;
10120;SDS011;5100;45.176;5.714;2023-02-18T00:16:21;9.37;;;7.53;;
10120;SDS011;5100;45.176;5.714;2023-02-18T00:18:48;13.93;;;8.23;;
10120;SDS011;5100;45.176;5.714;2023-02-18T00:21:15;13.97;;;7.87;;
10120;SDS011;5100;45.176;5.714;2023-02-18T00:23:41;10.47;;;7.23;;
10120;SDS011;5100;45.176;5.714;2023-02-18T00:26:09;9.17;;;7.43;;
10120;SDS011;5100;45.176;5.714;2023-02-18T00:28:37;10.53;;;7.87;;
10120;SDS011;5100;45.176;5.714;2023-02-18T00:31:05;11.10;;;7.63;;
10120;SDS011;5100;45.176;5.714;2023-02-18T00:33:42;9.00;;;7.47;;
10120;SDS011;5100;45.176;5.714;2023-02-18T00:36:09;9.07;;;7.47;;
10120;SDS011;5100;45.176;5.714;2023-02-18T00:38:44;9.97;;;7.53;;
10120;SDS011;5100;45.176;5.714;2023-02-18T00:41:11;9.40;;;7.30;;
10120;SDS011;5100;45.176;5.714;2023-02-18T00:43:38;8.43;;;7.63;;
10120;SDS011;5100;45.176;5.714;2023-02-18T00:46:04;11.57;;;7.87;;
10120;SDS011;5100;45.176;5.714;2023-02-18T00:48:31;7.93;;;7.23;;
10120;SDS011;5100;45.176;5.714;2023-02-18T00:50:57;9.63;;;7.70;;
10120;SDS011;5100;45.176;5.714;2023-02-18T00:53:25;9.77;;;7.47;;
10120;SDS011;5100;45.176;5.714;2023-02-18T00:55:53;9.57;;;7.20;;
10120;SDS011;5100;45.176;5.714;2023-02-18T00:58:19;8.97;;;7.50;;
10120;SDS011;5100;45.176;5.714;2023-02-18T01:00:45;9.03;;;8.20;;
10120;SDS011;5100;45.176;5.714;2023-02-18T01:03:11;11.23;;;8.47;;
10120;SDS011;5100;45.176;5.714;2023-02-18T01:05:38;9.10;;;8.07;;
10120;SDS011;5100;45.176;5.714;2023-02-18T01:08:06;12.53;;;8.27;;
10120;SDS011;5100;45.176;5.714;2023-02-18T01:10:34;11.30;;;8.57;;
10120;SDS011;5100;45.176;5.714;2023-02-18T01:13:03;10.13;;;9.00;;
10120;SDS011;5100;45.176;5.714;2023-02-18T01:15:29;12.13;;;8.27;;
10120;SDS011;5100;45.176;5.714;2023-02-18T01:17:56;10.50;;;8.60;;
10120;SDS011;5100;45.176;5.714;2023-02-18T01:20:22;13.13;;;9.53;;
10120;SDS011;5100;45.176;5.714;2023-02-18T01:22:48;11.13;;;9.90;;
10120;SDS011;5100;45.176;5.714;2023-02-18T01:25:15;14.20;;;9.87;;
10120;SDS011;5100;45.176;5.714;2023-02-18T01:27:41;16.63;;;10.33;;
10120;SDS011;5100;45.176;5.714;2023-02-18T01:30:08;13.60;;;10.33;;
10120;SDS011;5100;45.176;5.714;2023-02-18T01:32:37;13.53;;;10.23;;
10120;SDS011;5100;45.176;5.714;2023-02-18T01:35:04;11.90;;;9.67;;
10120;SDS011;5100;45.176;5.714;2023-02-18T01:37:31;13.23;;;9.77;;
10120;SDS011;5100;45.176;5.714;2023-02-18T01:39:58;13.40;;;9.53;;
10120;SDS011;5100;45.176;5.714;2023-02-18T01:42:26;11.80;;;9.13;;
10120;SDS011;5100;45.176;5.714;2023-02-18T01:45:23;10.37;;;9.03;;
10120;SDS011;5100;45.176;5.714;2023-02-18T01:47:52;10.57;;;9.43;;
10120;SDS011;5100;45.176;5.714;2023-02-18T01:50:18;11.37;;;9.73;;
10120;SDS011;5100;45.176;5.714;2023-02-18T01:52:47;11.20;;;9.77;;
10120;SDS011;5100;45.176;5.714;2023-02-18T01:55:13;15.57;;;10.00;;
10120;SDS011;5100;45.176;5.714;2023-02-18T01:57:41;12.27;;;9.03;;
10120;SDS011;5100;45.176;5.714;2023-02-18T02:00:14;14.00;;;9.90;;
10120;SDS011;5100;45.176;5.714;2023-02-18T02:02:46;13.53;;;8.90;;
10120;SDS011;5100;45.176;5.714;2023-02-18T02:05:13;10.83;;;9.27;;
10120;SDS011;5100;45.176;5.714;2023-02-18T02:07:40;13.20;;;8.77;;
10120;SDS011;5100;45.176;5.714;2023-02-18T02:10:08;10.63;;;8.30;;
10120;SDS011;5100;45.176;5.714;2023-02-18T02:12:52;10.47;;;9.00;;
10120;SDS011;5100;45.176;5.714;2023-02-18T02:34:34;12.43;;;9.60;;
10120;SDS011;5100;45.176;5.714;2023-02-18T02:45:09;10.83;;;9.60;;
10120;SDS011;5100;45.176;5.714;2023-02-18T02:47:58;9.97;;;8.97;;
10120;SDS011;5100;45.176;5.714;2023-02-18T02:53:38;12.80;;;9.47;;
10120;SDS011;5100;45.176;5.714;2023-02-18T02:56:09;11.97;;;9.57;;
10120;SDS011;5100;45.176;5.714;2023-02-18T02:58:43;12.83;;;9.63;;
10120;SDS011;5100;45.176;5.714;2023-02-18T03:07:05;10.73;;;9.07;;
10120;SDS011;5100;45.176;5.714;2023-02-18T03:12:39;14.97;;;10.20;;
10120;SDS011;5100;45.176;5.714;2023-02-18T03:21:06;12.23;;;9.40;;
10120;SDS011;5100;45.176;5.714;2023-02-18T03:23:35;11.43;;;8.90;;
10120;SDS011;5100;45.176;5.714;2023-02-18T03:26:07;10.20;;;9.00;;
10120;SDS011;5100;45.176;5.714;2023-02-18T03:28:35;10.23;;;9.17;;
10120;SDS011;5100;45.176;5.714;2023-02-18T03:31:13;10.13;;;9.13;;
10120;SDS011;5100;45.176;5.714;2023-02-18T03:33:57;11.30;;;9.00;;
10120;SDS011;5100;45.176;5.714;2023-02-18T03:36:34;10.13;;;8.77;;
10120;SDS011;5100;45.176;5.714;2023-02-18T03:39:03;10.90;;;9.00;;
10120;SDS011;5100;45.176;5.714;2023-02-18T03:41:39;12.30;;;9.30;;
10120;SDS011;5100;45.176;5.714;2023-02-18T03:44:07;10.77;;;9.03;;
10120;SDS011;5100;45.176;5.714;2023-02-18T03:46:34;9.37;;;8.37;;
10120;SDS011;5100;45.176;5.714;2023-02-18T03:49:03;10.77;;;8.80;;
10120;SDS011;5100;45.176;5.714;2023-02-18T03:51:30;17.83;;;8.57;;
10120;SDS011;5100;45.176;5.714;2023-02-18T03:53:56;10.60;;;8.57;;
10120;SDS011;5100;45.176;5.714;2023-02-18T03:56:22;9.30;;;8.20;;
10120;SDS011;5100;45.176;5.714;2023-02-18T03:58:49;9.37;;;8.37;;
10120;SDS011;5100;45.176;5.714;2023-02-18T04:01:14;12.23;;;8.87;;
10120;SDS011;5100;45.176;5.714;2023-02-18T04:03:41;11.07;;;8.30;;
10120;SDS011;5100;45.176;5.714;2023-02-18T04:06:07;10.87;;;9.43;;
10120;SDS011;5100;45.176;5.714;2023-02-18T04:08:33;9.67;;;8.77;;
10120;SDS011;5100;45.176;5.714;2023-02-18T04:11:01;10.83;;;8.03;;
10120;SDS011;5100;45.176;5.714;2023-02-18T04:13:29;10.77;;;8.60;;
10120;SDS011;5100;45.176;5.714;2023-02-18T04:15:56;9.87;;;8.50;;
10120;SDS011;5100;45.176;5.714;2023-02-18T04:18:22;9.93;;;8.87;;
10120;SDS011;5100;45.176;5.714;2023-02-18T04:20:48;9.13;;;8.23;;
10120;SDS011;5100;45.176;5.714;2023-02-18T04:23:15;9.07;;;8.27;;
10120;SDS011;5100;45.176;5.714;2023-02-18T04:25:41;10.47;;;8.43;;
10120;SDS011;5100;45.176;5.714;2023-02-18T04:28:07;9.57;;;8.63;;
10120;SDS011;5100;45.176;5.714;2023-02-18T04:30:35;10.27;;;8.57;;
10120;SDS011;5100;45.176;5.714;2023-02-18T04:33:02;10.53;;;9.17;;
10120;SDS011;5100;45.176;5.714;2023-02-18T04:35:28;10.57;;;8.93;;
10120;SDS011;5100;45.176;5.714;2023-02-18T04:37:54;8.70;;;7.80;;
10120;SDS011;5100;45.176;5.714;2023-02-18T04:40:20;9.57;;;8.53;;
10120;SDS011;5100;45.176;5.714;2023-02-18T04:42:46;9.07;;;8.20;;
10120;SDS011;5100;45.176;5.714;2023-02-18T04:45:12;10.07;;;8.87;;
10120;SDS011;5100;45.176;5.714;2023-02-18T04:47:38;9.70;;;8.60;;
10120;SDS011;5100;45.176;5.714;2023-02-18T04:50:05;10.03;;;9.00;;
10120;SDS011;5100;45.176;5.714;2023-02-18T04:52:31;9.60;;;8.67;;
10120;SDS011;5100;45.176;5.714;2023-02-18T04:54:58;13.70;;;9.10;;
10120;SDS011;5100;45.176;5.714;2023-02-18T04:57:24;14.50;;;9.80;;
10120;SDS011;5100;45.176;5.714;2023-02-18T04:59:53;11.67;;;10.40;;
10120;SDS011;5100;45.176;5.714;2023-02-18T05:02:19;11.50;;;9.17;;
10120;SDS011;5100;45.176;5.714;2023-02-18T05:04:45;10.77;;;9.30;;
10120;SDS011;5100;45.176;5.714;2023-02-18T05:07:11;10.83;;;9.67;;
10120;SDS011;5100;45.176;5.714;2023-02-18T05:09:37;12.73;;;9.37;;
10120;SDS011;5100;45.176;5.714;2023-02-18T05:12:03;11.37;;;9.47;;
10120;SDS011;5100;45.176;5.714;2023-02-18T05:14:30;9.37;;;8.47;;
10120;SDS011;5100;45.176;5.714;2023-02-18T05:16:56;11.03;;;8.97;;
10120;SDS011;5100;45.176;5.714;2023-02-18T05:19:22;10.87;;;9.50;;
10120;SDS011;5100;45.176;5.714;2023-02-18T05:21:48;10.10;;;9.00;;
10120;SDS011;5100;45.176;5.714;2023-02-18T05:24:15;11.80;;;9.23;;
10120;SDS011;5100;45.176;5.714;2023-02-18T05:26:40;10.17;;;9.17;;
10120;SDS011;5100;45.176;5.714;2023-02-18T05:29:06;10.83;;;9.40;;
10120;SDS011;5100;45.176;5.714;2023-02-18T05:31:33;12.43;;;9.30;;
10120;SDS011;5100;45.176;5.714;2023-02-18T05:33:59;11.83;;;9.47;;
10120;SDS011;5100;45.176;5.714;2023-02-18T05:36:25;11.70;;;8.87;;
10120;SDS011;5100;45.176;5.714;2023-02-18T05:38:51;13.27;;;9.57;;
10120;SDS011;5100;45.176;5.714;2023-02-18T05:41:17;10.77;;;8.77;;
10120;SDS011;5100;45.176;5.714;2023-02-18T05:43:43;10.33;;;9.23;;
10120;SDS011;5100;45.176;5.714;2023-02-18T05:46:29;14.23;;;9.17;;
10120;SDS011;5100;45.176;5.714;2023-02-18T05:48:54;10.33;;;9.33;;
10120;SDS011;5100;45.176;5.714;2023-02-18T05:51:20;10.97;;;9.57;;
10120;SDS011;5100;45.176;5.714;2023-02-18T05:53:47;14.37;;;10.27;;
10120;SDS011;5100;45.176;5.714;2023-02-18T05:56:13;12.27;;;9.63;;
10120;SDS011;5100;45.176;5.714;2023-02-18T05:58:39;12.30;;;9.43;;
10120;SDS011;5100;45.176;5.714;2023-02-18T06:01:05;12.60;;;10.00;;
10120;SDS011;5100;45.176;5.714;2023-02-18T06:03:32;9.93;;;8.93;;
10120;SDS011;5100;45.176;5.714;2023-02-18T06:05:58;10.47;;;9.37;;
10120;SDS011;5100;45.176;5.714;2023-02-18T06:08:24;13.50;;;10.43;;
10120;SDS011;5100;45.176;5.714;2023-02-18T06:10:50;11.77;;;9.93;;
10120;SDS011;5100;45.176;5.714;2023-02-18T06:13:16;12.57;;;9.93;;
10120;SDS011;5100;45.176;5.714;2023-02-18T06:15:42;12.10;;;9.80;;
10120;SDS011;5100;45.176;5.714;2023-02-18T06:18:09;11.67;;;9.77;;
10120;SDS011;5100;45.176;5.714;2023-02-18T06:20:35;10.90;;;9.77;;
10120;SDS011;5100;45.176;5.714;2023-02-18T06:23:01;11.17;;;9.67;;
10120;SDS011;5100;45.176;5.714;2023-02-18T06:25:28;10.43;;;9.07;;
10120;SDS011;5100;45.176;5.714;2023-02-18T06:27:53;12.27;;;9.27;;
10120;SDS011;5100;45.176;5.714;2023-02-18T06:30:20;10.40;;;9.00;;
10120;SDS011;5100;45.176;5.714;2023-02-18T06:32:46;11.40;;;9.33;;
10120;SDS011;5100;45.176;5.714;2023-02-18T06:35:12;11.57;;;9.07;;
10120;SDS011;5100;45.176;5.714;2023-02-18T06:37:38;12.07;;;8.80;;
10120;SDS011;5100;45.176;5.714;2023-02-18T06:40:05;10.63;;;9.53;;
10120;SDS011;5100;45.176;5.714;2023-02-18T06:42:32;15.00;;;9.27;;
10120;SDS011;5100;45.176;5.714;2023-02-18T06:44:58;10.53;;;9.00;;
10120;SDS011;5100;45.176;5.714;2023-02-18T06:47:24;11.73;;;9.30;;
10120;SDS011;5100;45.176;5.714;2023-02-18T06:49:50;10.10;;;9.10;;
10120;SDS011;5100;45.176;5.714;2023-02-18T06:52:16;11.33;;;8.47;;
10120;SDS011;5100;45.176;5.714;2023-02-18T06:54:42;11.77;;;9.40;;
10120;SDS011;5100;45.176;5.714;2023-02-18T06:57:08;11.03;;;9.00;;
10120;SDS011;5100;45.176;5.714;2023-02-18T06:59:34;12.50;;;9.43;;
10120;SDS011;5100;45.176;5.714;2023-02-18T07:02:00;10.50;;;9.03;;
10120;SDS011;5100;45.176;5.714;2023-02-18T07:04:26;12.83;;;8.93;;
10120;SDS011;5100;45.176;5.714;2023-02-18T07:06:52;11.23;;;9.10;;
10120;SDS011;5100;45.176;5.714;2023-02-18T07:09:18;13.20;;;10.20;;
10120;SDS011;5100;45.176;5.714;2023-02-18T07:11:44;13.13;;;9.90;;
10120;SDS011;5100;45.176;5.714;2023-02-18T07:14:10;14.67;;;9.13;;
10120;SDS011;5100;45.176;5.714;2023-02-18T07:16:37;9.90;;;8.83;;
10120;SDS011;5100;45.176;5.714;2023-02-18T07:19:03;16.30;;;9.40;;
10120;SDS011;5100;45.176;5.714;2023-02-18T07:21:29;10.77;;;8.93;;
10120;SDS011;5100;45.176;5.714;2023-02-18T07:23:55;15.37;;;12.53;;
10120;SDS011;5100;45.176;5.714;2023-02-18T07:26:21;12.97;;;9.00;;
10120;SDS011;5100;45.176;5.714;2023-02-18T07:28:47;10.83;;;9.57;;
10120;SDS011;5100;45.176;5.714;2023-02-18T07:31:14;12.17;;;9.53;;
10120;SDS011;5100;45.176;5.714;2023-02-18T07:33:40;10.87;;;9.73;;
10120;SDS011;5100;45.176;5.714;2023-02-18T07:36:06;11.67;;;9.50;;
10120;SDS011;5100;45.176;5.714;2023-02-18T07:38:33;10.27;;;9.10;;
10120;SDS011;5100;45.176;5.714;2023-02-18T07:40:59;10.47;;;9.37;;
10120;SDS011;5100;45.176;5.714;2023-02-18T07:43:25;11.83;;;9.07;;
10120;SDS011;5100;45.176;5.714;2023-02-18T07:45:51;12.17;;;9.77;;
10120;SDS011;5100;45.176;5.714;2023-02-18T07:48:17;11.10;;;8.87;;
10120;SDS011;5100;45.176;5.714;2023-02-18T07:50:44;13.50;;;9.20;;
10120;SDS011;5100;45.176;5.714;2023-02-18T07:53:11;9.83;;;8.70;;
10120;SDS011;5100;45.176;5.714;2023-02-18T07:55:39;10.30;;;9.30;;
10120;SDS011;5100;45.176;5.714;2023-02-18T07:58:19;12.20;;;9.40;;
10120;SDS011;5100;45.176;5.714;2023-02-18T08:00:50;11.67;;;7.87;;
10120;SDS011;5100;45.176;5.714;2023-02-18T08:03:18;12.17;;;8.73;;
10120;SDS011;5100;45.176;5.714;2023-02-18T08:05:47;12.33;;;9.03;;
10120;SDS011;5100;45.176;5.714;2023-02-18T08:08:18;9.50;;;7.83;;
10120;SDS011;5100;45.176;5.714;2023-02-18T08:10:47;8.97;;;7.27;;
10120;SDS011;5100;45.176;5.714;2023-02-18T08:13:13;12.77;;;8.57;;
10120;SDS011;5100;45.176;5.714;2023-02-18T08:15:40;12.03;;;8.00;;
10120;SDS011;5100;45.176;5.714;2023-02-18T08:18:07;9.97;;;7.90;;
10120;SDS011;5100;45.176;5.714;2023-02-18T08:20:39;10.07;;;8.00;;
10120;SDS011;5100;45.176;5.714;2023-02-18T08:23:05;9.33;;;8.03;;
10120;SDS011;5100;45.176;5.714;2023-02-18T08:25:32;12.57;;;7.87;;
10120;SDS011;5100;45.176;5.714;2023-02-18T08:27:58;10.83;;;7.27;;
10120;SDS011;5100;45.176;5.714;2023-02-18T08:30:25;9.43;;;7.33;;
10120;SDS011;5100;45.176;5.714;2023-02-18T08:32:51;10.70;;;7.87;;
10120;SDS011;5100;45.176;5.714;2023-02-18T08:35:17;7.90;;;7.10;;
10120;SDS011;5100;45.176;5.714;2023-02-18T08:37:44;9.57;;;7.17;;
10120;SDS011;5100;45.176;5.714;2023-02-18T08:40:10;8.40;;;7.57;;
10120;SDS011;5100;45.176;5.714;2023-02-18T08:42:38;10.77;;;7.57;;
10120;SDS011;5100;45.176;5.714;2023-02-18T08:45:05;10.87;;;7.57;;
10120;SDS011;5100;45.176;5.714;2023-02-18T08:47:31;8.70;;;7.80;;
10120;SDS011;5100;45.176;5.714;2023-02-18T08:49:57;8.60;;;7.37;;
10120;SDS011;5100;45.176;5.714;2023-02-18T08:52:24;8.07;;;7.03;;
10120;SDS011;5100;45.176;5.714;2023-02-18T08:54:50;10.27;;;7.20;;
10120;SDS011;5100;45.176;5.714;2023-02-18T08:57:16;10.20;;;7.80;;
10120;SDS011;5100;45.176;5.714;2023-02-18T08:59:43;10.07;;;7.33;;
10120;SDS011;5100;45.176;5.714;2023-02-18T09:02:12;8.70;;;7.50;;
10120;SDS011;5100;45.176;5.714;2023-02-18T09:04:39;8.17;;;7.37;;
10120;SDS011;5100;45.176;5.714;2023-02-18T09:07:05;10.87;;;8.13;;
10120;SDS011;5100;45.176;5.714;2023-02-18T09:09:31;11.07;;;8.17;;
10120;SDS011;5100;45.176;5.714;2023-02-18T09:11:58;10.20;;;7.10;;
10120;SDS011;5100;45.176;5.714;2023-02-18T09:14:24;10.17;;;8.00;;
10120;SDS011;5100;45.176;5.714;2023-02-18T09:16:51;11.43;;;8.33;;
10120;SDS011;5100;45.176;5.714;2023-02-18T09:19:17;8.77;;;7.47;;
10120;SDS011;5100;45.176;5.714;2023-02-18T09:21:43;9.03;;;7.20;;
10120;SDS011;5100;45.176;5.714;2023-02-18T09:24:09;10.37;;;7.37;;
10120;SDS011;5100;45.176;5.714;2023-02-18T09:26:35;11.37;;;8.13;;
10120;SDS011;5100;45.176;5.714;2023-02-18T09:29:03;10.40;;;6.93;;
10120;SDS011;5100;45.176;5.714;2023-02-18T09:31:29;13.20;;;6.73;;
10120;SDS011;5100;45.176;5.714;2023-02-18T09:33:56;7.47;;;6.67;;
10120;SDS011;5100;45.176;5.714;2023-02-18T09:36:24;8.97;;;7.20;;
10120;SDS011;5100;45.176;5.714;2023-02-18T09:38:51;9.10;;;7.23;;
10120;SDS011;5100;45.176;5.714;2023-02-18T09:41:23;8.70;;;7.33;;
10120;SDS011;5100;45.176;5.714;2023-02-18T09:43:52;9.33;;;7.80;;
10120;SDS011;5100;45.176;5.714;2023-02-18T09:48:50;7.77;;;6.40;;
10120;SDS011;5100;45.176;5.714;2023-02-18T09:51:17;7.93;;;6.37;;
10120;SDS011;5100;45.176;5.714;2023-02-18T09:53:44;9.97;;;6.20;;
10120;SDS011;5100;45.176;5.714;2023-02-18T09:56:13;9.10;;;6.53;;
10120;SDS011;5100;45.176;5.714;2023-02-18T09:58:48;8.53;;;6.90;;
10120;SDS011;5100;45.176;5.714;2023-02-18T10:04:13;9.87;;;6.37;;
10120;SDS011;5100;45.176;5.714;2023-02-18T10:06:43;10.77;;;6.70;;
10120;SDS011;5100;45.176;5.714;2023-02-18T10:09:19;11.30;;;7.00;;
10120;SDS011;5100;45.176;5.714;2023-02-18T10:11:54;9.10;;;6.83;;
10120;SDS011;5100;45.176;5.714;2023-02-18T10:14:22;9.03;;;6.93;;
10120;SDS011;5100;45.176;5.714;2023-02-18T10:16:50;10.57;;;7.00;;
10120;SDS011;5100;45.176;5.714;2023-02-18T10:22:02;8.57;;;6.90;;
10120;SDS011;5100;45.176;5.714;2023-02-18T10:24:31;8.10;;;7.13;;
10120;SDS011;5100;45.176;5.714;2023-02-18T10:27:01;9.57;;;7.10;;
10120;SDS011;5100;45.176;5.714;2023-02-18T10:29:31;9.40;;;6.93;;
10120;SDS011;5100;45.176;5.714;2023-02-18T10:32:11;11.20;;;7.20;;
10120;SDS011;5100;45.176;5.714;2023-02-18T10:34:53;7.90;;;7.10;;
10120;SDS011;5100;45.176;5.714;2023-02-18T10:41:13;10.37;;;7.80;;
10120;SDS011;5100;45.176;5.714;2023-02-18T10:45:54;9.90;;;7.33;;
10120;SDS011;5100;45.176;5.714;2023-02-18T10:51:36;12.27;;;7.70;;
10120;SDS011;5100;45.176;5.714;2023-02-18T10:54:09;12.27;;;7.73;;
10120;SDS011;5100;45.176;5.714;2023-02-18T10:56:40;10.03;;;8.50;;
10120;SDS011;5100;45.176;5.714;2023-02-18T10:59:18;8.57;;;7.37;;
10120;SDS011;5100;45.176;5.714;2023-02-18T11:01:54;9.87;;;7.97;;
10120;SDS011;5100;45.176;5.714;2023-02-18T11:04:23;9.50;;;7.17;;
10120;SDS011;5100;45.176;5.714;2023-02-18T11:06:52;9.53;;;7.70;;
10120;SDS011;5100;45.176;5.714;2023-02-18T11:12:14;9.67;;;7.27;;
10120;SDS011;5100;45.176;5.714;2023-02-18T11:14:43;9.87;;;7.40;;
10120;SDS011;5100;45.176;5.714;2023-02-18T11:17:15;9.50;;;7.40;;
10120;SDS011;5100;45.176;5.714;2023-02-18T11:19:53;8.73;;;7.77;;
10120;SDS011;5100;45.176;5.714;2023-02-18T11:22:27;8.37;;;7.33;;
10120;SDS011;5100;45.176;5.714;2023-02-18T11:25:00;12.87;;;7.60;;
10120;SDS011;5100;45.176;5.714;2023-02-18T11:30:14;9.13;;;7.53;;
10120;SDS011;5100;45.176;5.714;2023-02-18T11:32:59;8.83;;;7.17;;
10120;SDS011;5100;45.176;5.714;2023-02-18T11:35:56;9.73;;;6.93;;
10120;SDS011;5100;45.176;5.714;2023-02-18T11:38:37;8.90;;;7.17;;
10120;SDS011;5100;45.176;5.714;2023-02-18T11:41:09;8.10;;;6.97;;
10120;SDS011;5100;45.176;5.714;2023-02-18T11:43:42;9.47;;;7.37;;
10120;SDS011;5100;45.176;5.714;2023-02-18T11:46:19;8.87;;;7.73;;
10120;SDS011;5100;45.176;5.714;2023-02-18T11:48:48;8.83;;;7.17;;
10120;SDS011;5100;45.176;5.714;2023-02-18T11:51:25;8.37;;;6.90;;
10120;SDS011;5100;45.176;5.714;2023-02-18T11:54:03;8.30;;;7.50;;
10120;SDS011;5100;45.176;5.714;2023-02-18T11:57:20;8.50;;;7.17;;
10120;SDS011;5100;45.176;5.714;2023-02-18T11:59:40;7.97;;;6.70;;
10120;SDS011;5100;45.176;5.714;2023-02-18T12:04:38;7.27;;;6.47;;
10120;SDS011;5100;45.176;5.714;2023-02-18T12:09:55;8.50;;;6.00;;
10120;SDS011;5100;45.176;5.714;2023-02-18T12:12:29;9.83;;;6.20;;
10120;SDS011;5100;45.176;5.714;2023-02-18T12:15:07;8.73;;;6.83;;
10120;SDS011;5100;45.176;5.714;2023-02-18T12:17:41;7.10;;;6.20;;
10120;SDS011;5100;45.176;5.714;2023-02-18T12:20:35;6.83;;;5.80;;
10120;SDS011;5100;45.176;5.714;2023-02-18T12:23:22;7.60;;;6.50;;
10120;SDS011;5100;45.176;5.714;2023-02-18T12:29:14;7.10;;;5.90;;
10120;SDS011;5100;45.176;5.714;2023-02-18T12:32:04;6.30;;;5.47;;
10120;SDS011;5100;45.176;5.714;2023-02-18T12:35:02;5.67;;;5.00;;
10120;SDS011;5100;45.176;5.714;2023-02-18T12:43:21;4.18;;;3.35;;
10120;SDS011;5100;45.176;5.714;2023-02-18T12:46:14;2.60;;;2.40;;
10120;SDS011;5100;45.176;5.714;2023-02-18T12:57:04;5.43;;;2.92;;
10120;SDS011;5100;45.176;5.714;2023-02-18T13:05:25;3.30;;;3.00;;
10120;SDS011;5100;45.176;5.714;2023-02-18T13:13:34;3.37;;;2.80;;
10120;SDS011;5100;45.176;5.714;2023-02-18T13:16:09;4.30;;;3.00;;
10120;SDS011;5100;45.176;5.714;2023-02-18T13:21:41;3.60;;;2.60;;
10120;SDS011;5100;45.176;5.714;2023-02-18T13:24:10;2.72;;;2.53;;
10120;SDS011;5100;45.176;5.714;2023-02-18T13:26:39;3.12;;;2.83;;
10120;SDS011;5100;45.176;5.714;2023-02-18T13:39:54;2.70;;;2.50;;
10120;SDS011;5100;45.176;5.714;2023-02-18T13:42:24;2.60;;;2.40;;
10120;SDS011;5100;45.176;5.714;2023-02-18T13:58:28;3.97;;;2.20;;
10120;SDS011;5100;45.176;5.714;2023-02-18T14:01:05;2.45;;;2.25;;
10120;SDS011;5100;45.176;5.714;2023-02-18T14:06:17;2.60;;;2.40;;
10120;SDS011;5100;45.176;5.714;2023-02-18T14:08:46;2.12;;;2.03;;
10120;SDS011;5100;45.176;5.714;2023-02-18T14:13:46;3.65;;;2.12;;
10120;SDS011;5100;45.176;5.714;2023-02-18T14:16:15;2.28;;;2.08;;
10120;SDS011;5100;45.176;5.714;2023-02-18T14:23:40;2.50;;;2.25;;
10120;SDS011;5100;45.176;5.714;2023-02-18T14:26:32;2.92;;;2.50;;
10120;SDS011;5100;45.176;5.714;2023-02-18T14:29:06;2.55;;;2.35;;
10120;SDS011;5100;45.176;5.714;2023-02-18T14:32:19;3.28;;;2.10;;
10120;SDS011;5100;45.176;5.714;2023-02-18T14:34:42;2.37;;;2.10;;
10120;SDS011;5100;45.176;5.714;2023-02-18T14:39:53;3.83;;;2.10;;
10120;SDS011;5100;45.176;5.714;2023-02-18T14:48:40;3.78;;;2.40;;
10120;SDS011;5100;45.176;5.714;2023-02-18T14:51:16;2.28;;;2.10;;
10120;SDS011;5100;45.176;5.714;2023-02-18T14:53:46;2.53;;;2.17;;
10120;SDS011;5100;45.176;5.714;2023-02-18T14:56:13;2.25;;;2.10;;
10120;SDS011;5100;45.176;5.714;2023-02-18T14:58:46;3.35;;;2.20;;
10120;SDS011;5100;45.176;5.714;2023-02-18T15:01:33;2.85;;;2.17;;
10120;SDS011;5100;45.176;5.714;2023-02-18T15:04:01;2.28;;;2.08;;
10120;SDS011;5100;45.176;5.714;2023-02-18T15:09:12;5.18;;;2.00;;
10120;SDS011;5100;45.176;5.714;2023-02-18T15:11:49;2.35;;;2.15;;
10120;SDS011;5100;45.176;5.714;2023-02-18T15:14:20;2.62;;;2.20;;
10120;SDS011;5100;45.176;5.714;2023-02-18T15:16:50;2.22;;;2.10;;
10120;SDS011;5100;45.176;5.714;2023-02-18T15:19:21;2.37;;;2.17;;
10120;SDS011;5100;45.176;5.714;2023-02-18T15:21:54;3.62;;;2.30;;
10120;SDS011;5100;45.176;5.714;2023-02-18T15:24:34;2.20;;;2.00;;
10120;SDS011;5100;45.176;5.714;2023-02-18T15:27:16;2.47;;;2.20;;
10120;SDS011;5100;45.176;5.714;2023-02-18T15:29:48;2.12;;;2.03;;
10120;SDS011;5100;45.176;5.714;2023-02-18T15:32:20;2.50;;;2.20;;
10120;SDS011;5100;45.176;5.714;2023-02-18T15:34:50;2.50;;;2.30;;
10120;SDS011;5100;45.176;5.714;2023-02-18T15:37:19;2.70;;;2.50;;
10120;SDS011;5100;45.176;5.714;2023-02-18T15:39:45;2.37;;;2.20;;
10120;SDS011;5100;45.176;5.714;2023-02-18T15:42:18;2.78;;;2.10;;
10120;SDS011;5100;45.176;5.714;2023-02-18T15:44:56;2.70;;;2.33;;
10120;SDS011;5100;45.176;5.714;2023-02-18T15:47:26;3.47;;;2.33;;
10120;SDS011;5100;45.176;5.714;2023-02-18T15:49:54;3.05;;;2.30;;
10120;SDS011;5100;45.176;5.714;2023-02-18T15:52:28;2.60;;;2.40;;
10120;SDS011;5100;45.176;5.714;2023-02-18T15:55:05;2.78;;;2.58;;
10120;SDS011;5100;45.176;5.714;2023-02-18T15:57:38;4.53;;;2.30;;
10120;SDS011;5100;45.176;5.714;2023-02-18T16:00:17;2.40;;;2.20;;
10120;SDS011;5100;45.176;5.714;2023-02-18T16:02:53;2.70;;;2.50;;
10120;SDS011;5100;45.176;5.714;2023-02-18T16:05:25;3.42;;;2.70;;
10120;SDS011;5100;45.176;5.714;2023-02-18T16:07:58;4.50;;;2.75;;
10120;SDS011;5100;45.176;5.714;2023-02-18T16:13:00;2.83;;;2.60;;
10120;SDS011;5100;45.176;5.714;2023-02-18T16:15:29;5.05;;;2.55;;
10120;SDS011;5100;45.176;5.714;2023-02-18T16:18:01;3.12;;;2.55;;
10120;SDS011;5100;45.176;5.714;2023-02-18T16:20:29;3.15;;;2.80;;
10120;SDS011;5100;45.176;5.714;2023-02-18T16:23:09;2.75;;;2.55;;
10120;SDS011;5100;45.176;5.714;2023-02-18T16:25:42;2.67;;;2.47;;
10120;SDS011;5100;45.176;5.714;2023-02-18T16:28:13;3.28;;;2.70;;
10120;SDS011;5100;45.176;5.714;2023-02-18T16:30:41;2.40;;;2.20;;
10120;SDS011;5100;45.176;5.714;2023-02-18T16:33:10;5.28;;;2.60;;
10120;SDS011;5100;45.176;5.714;2023-02-18T16:35:36;2.87;;;2.67;;
10120;SDS011;5100;45.176;5.714;2023-02-18T16:38:03;3.15;;;2.70;;
10120;SDS011;5100;45.176;5.714;2023-02-18T16:40:33;2.67;;;2.47;;
10120;SDS011;5100;45.176;5.714;2023-02-18T16:43:09;3.92;;;2.72;;
10120;SDS011;5100;45.176;5.714;2023-02-18T16:45:50;3.03;;;2.50;;
10120;SDS011;5100;45.176;5.714;2023-02-18T16:51:04;3.47;;;2.80;;
10120;SDS011;5100;45.176;5.714;2023-02-18T16:53:34;3.75;;;2.55;;
10120;SDS011;5100;45.176;5.714;2023-02-18T16:56:00;3.03;;;2.20;;
10120;SDS011;5100;45.176;5.714;2023-02-18T16:58:27;2.42;;;2.22;;
10120;SDS011;5100;45.176;5.714;2023-02-18T17:00:53;2.83;;;2.58;;
10120;SDS011;5100;45.176;5.714;2023-02-18T17:03:20;2.70;;;2.50;;
10120;SDS011;5100;45.176;5.714;2023-02-18T17:05:46;2.95;;;2.10;;
10120;SDS011;5100;45.176;5.714;2023-02-18T17:08:13;3.20;;;2.30;;
10120;SDS011;5100;45.176;5.714;2023-02-18T17:10:44;3.03;;;2.65;;
10120;SDS011;5100;45.176;5.714;2023-02-18T17:13:12;2.95;;;2.30;;
10120;SDS011;5100;45.176;5.714;2023-02-18T17:15:41;2.25;;;2.05;;
10120;SDS011;5100;45.176;5.714;2023-02-18T17:18:08;2.10;;;2.00;;
10120;SDS011;5100;45.176;5.714;2023-02-18T17:20:33;3.35;;;1.98;;
10120;SDS011;5100;45.176;5.714;2023-02-18T17:23:00;2.30;;;2.10;;
10120;SDS011;5100;45.176;5.714;2023-02-18T17:25:37;2.85;;;2.03;;
10120;SDS011;5100;45.176;5.714;2023-02-18T17:28:04;2.53;;;2.33;;
10120;SDS011;5100;45.176;5.714;2023-02-18T17:30:31;3.60;;;2.37;;
10120;SDS011;5100;45.176;5.714;2023-02-18T17:33:01;2.67;;;2.20;;
10120;SDS011;5100;45.176;5.714;2023-02-18T17:35:28;2.60;;;2.40;;
10120;SDS011;5100;45.176;5.714;2023-02-18T17:37:55;2.70;;;2.20;;
10120;SDS011;5100;45.176;5.714;2023-02-18T17:40:21;2.67;;;2.45;;
10120;SDS011;5100;45.176;5.714;2023-02-18T17:42:49;3.10;;;2.78;;
10120;SDS011;5100;45.176;5.714;2023-02-18T17:45:17;3.55;;;2.83;;
10120;SDS011;5100;45.176;5.714;2023-02-18T17:47:54;3.28;;;2.55;;